sensor_id;sensor_type;location;lat;lon;timestamp;P1;durP1;ratioP1;P2;durP2;ratioP2
6640;SDS011;3356;49.360;8.266;2022-11-10T00:00:48;11.60;;;3.40;;
6640;SDS011;3356;49.360;8.266;2022-11-10T00:03:08;10.07;;;3.13;;
6640;SDS011;3356;49.360;8.266;2022-11-10T00:05:28;8.00;;;2.47;;
6640;SDS011;3356;49.360;8.266;2022-11-10T00:07:49;7.87;;;4.00;;
6640;SDS011;3356;49.360;8.266;2022-11-10T00:10:08;5.53;;;3.40;;
6640;SDS011;3356;49.360;8.266;2022-11-10T00:12:28;8.20;;;3.37;;
6640;SDS011;3356;49.360;8.266;2022-11-10T00:14:49;12.00;;;3.57;;
6640;SDS011;3356;49.360;8.266;2022-11-10T00:17:27;9.40;;;3.20;;
6640;SDS011;3356;49.360;8.266;2022-11-10T00:19:47;7.77;;;3.30;;
6640;SDS011;3356;49.360;8.266;2022-11-10T00:22:07;9.60;;;3.13;;
6640;SDS011;3356;49.360;8.266;2022-11-10T00:24:27;8.27;;;3.53;;
6640;SDS011;3356;49.360;8.266;2022-11-10T00:26:47;5.63;;;3.50;;
6640;SDS011;3356;49.360;8.266;2022-11-10T00:29:07;5.30;;;3.67;;
6640;SDS011;3356;49.360;8.266;2022-11-10T00:31:27;10.40;;;4.47;;
6640;SDS011;3356;49.360;8.266;2022-11-10T00:33:47;5.40;;;3.67;;
6640;SDS011;3356;49.360;8.266;2022-11-10T00:36:06;7.90;;;3.93;;
6640;SDS011;3356;49.360;8.266;2022-11-10T00:38:26;5.20;;;3.53;;
6640;SDS011;3356;49.360;8.266;2022-11-10T00:40:46;5.70;;;3.40;;
6640;SDS011;3356;49.360;8.266;2022-11-10T00:43:06;5.60;;;4.10;;
6640;SDS011;3356;49.360;8.266;2022-11-10T00:45:25;6.20;;;3.80;;
6640;SDS011;3356;49.360;8.266;2022-11-10T00:47:45;9.03;;;3.63;;
6640;SDS011;3356;49.360;8.266;2022-11-10T00:50:04;8.30;;;3.50;;
6640;SDS011;3356;49.360;8.266;2022-11-10T00:52:25;6.00;;;3.80;;
6640;SDS011;3356;49.360;8.266;2022-11-10T00:54:44;9.70;;;4.03;;
6640;SDS011;3356;49.360;8.266;2022-11-10T00:57:03;10.87;;;4.40;;
6640;SDS011;3356;49.360;8.266;2022-11-10T00:59:23;9.17;;;4.00;;
6640;SDS011;3356;49.360;8.266;2022-11-10T01:01:43;12.37;;;4.37;;
6640;SDS011;3356;49.360;8.266;2022-11-10T01:04:03;8.80;;;3.90;;
6640;SDS011;3356;49.360;8.266;2022-11-10T01:06:22;12.80;;;3.93;;
6640;SDS011;3356;49.360;8.266;2022-11-10T01:08:42;10.23;;;4.23;;
6640;SDS011;3356;49.360;8.266;2022-11-10T01:13:23;10.50;;;4.03;;
6640;SDS011;3356;49.360;8.266;2022-11-10T01:15:43;7.60;;;4.23;;
6640;SDS011;3356;49.360;8.266;2022-11-10T01:18:02;5.60;;;3.40;;
6640;SDS011;3356;49.360;8.266;2022-11-10T01:20:22;9.93;;;4.17;;
6640;SDS011;3356;49.360;8.266;2022-11-10T01:22:42;8.93;;;3.63;;
6640;SDS011;3356;49.360;8.266;2022-11-10T01:25:02;11.97;;;3.30;;
6640;SDS011;3356;49.360;8.266;2022-11-10T01:27:22;8.13;;;3.60;;
6640;SDS011;3356;49.360;8.266;2022-11-10T01:29:41;10.77;;;4.13;;
6640;SDS011;3356;49.360;8.266;2022-11-10T01:32:01;6.93;;;4.27;;
6640;SDS011;3356;49.360;8.266;2022-11-10T01:34:21;10.20;;;3.90;;
6640;SDS011;3356;49.360;8.266;2022-11-10T01:36:41;10.30;;;4.17;;
6640;SDS011;3356;49.360;8.266;2022-11-10T01:39:01;7.27;;;3.53;;
6640;SDS011;3356;49.360;8.266;2022-11-10T01:41:20;5.90;;;3.90;;
6640;SDS011;3356;49.360;8.266;2022-11-10T01:43:40;4.63;;;3.40;;
6640;SDS011;3356;49.360;8.266;2022-11-10T01:51:32;9.60;;;3.87;;
6640;SDS011;3356;49.360;8.266;2022-11-10T01:53:56;7.90;;;3.80;;
6640;SDS011;3356;49.360;8.266;2022-11-10T01:56:18;11.43;;;3.70;;
6640;SDS011;3356;49.360;8.266;2022-11-10T01:58:41;5.07;;;3.63;;
6640;SDS011;3356;49.360;8.266;2022-11-10T02:01:09;11.43;;;4.33;;
6640;SDS011;3356;49.360;8.266;2022-11-10T02:06:08;7.97;;;3.83;;
6640;SDS011;3356;49.360;8.266;2022-11-10T02:08:29;8.40;;;3.33;;
6640;SDS011;3356;49.360;8.266;2022-11-10T02:10:49;12.13;;;3.93;;
6640;SDS011;3356;49.360;8.266;2022-11-10T02:13:09;6.63;;;3.87;;
6640;SDS011;3356;49.360;8.266;2022-11-10T02:15:29;7.17;;;3.73;;
6640;SDS011;3356;49.360;8.266;2022-11-10T02:17:49;10.40;;;4.30;;
6640;SDS011;3356;49.360;8.266;2022-11-10T02:20:10;8.63;;;3.90;;
6640;SDS011;3356;49.360;8.266;2022-11-10T02:22:31;10.57;;;4.13;;
6640;SDS011;3356;49.360;8.266;2022-11-10T02:24:51;8.63;;;4.30;;
6640;SDS011;3356;49.360;8.266;2022-11-10T02:27:11;13.07;;;4.57;;
6640;SDS011;3356;49.360;8.266;2022-11-10T02:29:30;7.73;;;3.90;;
6640;SDS011;3356;49.360;8.266;2022-11-10T02:31:50;12.87;;;4.87;;
6640;SDS011;3356;49.360;8.266;2022-11-10T02:34:10;11.50;;;5.63;;
6640;SDS011;3356;49.360;8.266;2022-11-10T02:36:30;15.23;;;5.47;;
6640;SDS011;3356;49.360;8.266;2022-11-10T02:38:50;13.60;;;4.67;;
6640;SDS011;3356;49.360;8.266;2022-11-10T02:41:10;17.30;;;5.60;;
6640;SDS011;3356;49.360;8.266;2022-11-10T02:43:29;7.73;;;4.47;;
6640;SDS011;3356;49.360;8.266;2022-11-10T02:45:49;9.10;;;4.27;;
6640;SDS011;3356;49.360;8.266;2022-11-10T02:48:09;9.33;;;4.40;;
6640;SDS011;3356;49.360;8.266;2022-11-10T02:50:30;10.93;;;4.70;;
6640;SDS011;3356;49.360;8.266;2022-11-10T02:52:49;5.00;;;4.07;;
6640;SDS011;3356;49.360;8.266;2022-11-10T02:55:08;12.73;;;4.30;;
6640;SDS011;3356;49.360;8.266;2022-11-10T02:57:28;10.07;;;4.60;;
6640;SDS011;3356;49.360;8.266;2022-11-10T02:59:48;12.57;;;4.57;;
6640;SDS011;3356;49.360;8.266;2022-11-10T03:02:07;9.00;;;4.13;;
6640;SDS011;3356;49.360;8.266;2022-11-10T03:04:27;11.10;;;4.07;;
6640;SDS011;3356;49.360;8.266;2022-11-10T03:06:47;4.97;;;4.10;;
6640;SDS011;3356;49.360;8.266;2022-11-10T03:09:06;9.97;;;4.80;;
6640;SDS011;3356;49.360;8.266;2022-11-10T03:11:26;7.07;;;4.80;;
6640;SDS011;3356;49.360;8.266;2022-11-10T03:13:45;4.67;;;3.97;;
6640;SDS011;3356;49.360;8.266;2022-11-10T03:16:04;9.83;;;4.63;;
6640;SDS011;3356;49.360;8.266;2022-11-10T03:18:24;10.70;;;4.80;;
6640;SDS011;3356;49.360;8.266;2022-11-10T03:20:45;6.70;;;4.97;;
6640;SDS011;3356;49.360;8.266;2022-11-10T03:23:05;10.17;;;4.80;;
6640;SDS011;3356;49.360;8.266;2022-11-10T03:25:26;10.00;;;4.23;;
6640;SDS011;3356;49.360;8.266;2022-11-10T03:27:46;10.57;;;5.03;;
6640;SDS011;3356;49.360;8.266;2022-11-10T03:30:06;6.60;;;4.27;;
6640;SDS011;3356;49.360;8.266;2022-11-10T03:32:26;9.73;;;4.20;;
6640;SDS011;3356;49.360;8.266;2022-11-10T03:34:45;10.83;;;4.37;;
6640;SDS011;3356;49.360;8.266;2022-11-10T03:37:05;8.27;;;4.47;;
6640;SDS011;3356;49.360;8.266;2022-11-10T03:39:24;9.17;;;4.47;;
6640;SDS011;3356;49.360;8.266;2022-11-10T03:41:44;9.37;;;3.87;;
6640;SDS011;3356;49.360;8.266;2022-11-10T03:44:03;6.97;;;4.07;;
6640;SDS011;3356;49.360;8.266;2022-11-10T03:46:24;7.40;;;4.13;;
6640;SDS011;3356;49.360;8.266;2022-11-10T03:48:43;8.90;;;4.13;;
6640;SDS011;3356;49.360;8.266;2022-11-10T03:51:03;9.23;;;4.90;;
6640;SDS011;3356;49.360;8.266;2022-11-10T03:53:23;7.30;;;4.10;;
6640;SDS011;3356;49.360;8.266;2022-11-10T03:55:43;5.53;;;3.47;;
6640;SDS011;3356;49.360;8.266;2022-11-10T03:58:02;5.93;;;3.97;;
6640;SDS011;3356;49.360;8.266;2022-11-10T04:00:22;5.67;;;3.50;;
6640;SDS011;3356;49.360;8.266;2022-11-10T04:02:42;7.40;;;3.70;;
6640;SDS011;3356;49.360;8.266;2022-11-10T04:05:02;7.40;;;3.73;;
6640;SDS011;3356;49.360;8.266;2022-11-10T04:07:41;11.23;;;3.70;;
6640;SDS011;3356;49.360;8.266;2022-11-10T04:10:21;12.57;;;4.97;;
6640;SDS011;3356;49.360;8.266;2022-11-10T04:12:41;6.53;;;4.57;;
6640;SDS011;3356;49.360;8.266;2022-11-10T04:15:19;6.10;;;4.13;;
6640;SDS011;3356;49.360;8.266;2022-11-10T04:17:58;12.20;;;4.80;;
6640;SDS011;3356;49.360;8.266;2022-11-10T04:20:37;6.97;;;4.13;;
6640;SDS011;3356;49.360;8.266;2022-11-10T04:22:57;7.47;;;4.10;;
6640;SDS011;3356;49.360;8.266;2022-11-10T04:25:36;9.80;;;4.27;;
6640;SDS011;3356;49.360;8.266;2022-11-10T04:28:15;10.47;;;4.90;;
6640;SDS011;3356;49.360;8.266;2022-11-10T04:30:34;8.43;;;4.70;;
6640;SDS011;3356;49.360;8.266;2022-11-10T04:32:54;15.17;;;5.77;;
6640;SDS011;3356;49.360;8.266;2022-11-10T04:35:14;9.17;;;5.30;;
6640;SDS011;3356;49.360;8.266;2022-11-10T04:37:33;12.07;;;5.00;;
6640;SDS011;3356;49.360;8.266;2022-11-10T04:39:53;12.30;;;4.90;;
6640;SDS011;3356;49.360;8.266;2022-11-10T04:42:12;9.83;;;5.07;;
6640;SDS011;3356;49.360;8.266;2022-11-10T04:44:32;7.17;;;5.07;;
6640;SDS011;3356;49.360;8.266;2022-11-10T04:46:51;8.20;;;5.07;;
6640;SDS011;3356;49.360;8.266;2022-11-10T04:49:10;8.53;;;5.10;;
6640;SDS011;3356;49.360;8.266;2022-11-10T04:51:31;6.77;;;4.87;;
6640;SDS011;3356;49.360;8.266;2022-11-10T04:53:52;7.40;;;5.00;;
6640;SDS011;3356;49.360;8.266;2022-11-10T04:56:13;7.97;;;5.27;;
6640;SDS011;3356;49.360;8.266;2022-11-10T04:58:33;7.53;;;4.83;;
6640;SDS011;3356;49.360;8.266;2022-11-10T05:00:53;9.60;;;5.67;;
6640;SDS011;3356;49.360;8.266;2022-11-10T05:03:13;16.97;;;4.83;;
6640;SDS011;3356;49.360;8.266;2022-11-10T05:05:33;14.07;;;5.30;;
6640;SDS011;3356;49.360;8.266;2022-11-10T05:07:53;9.23;;;5.23;;
6640;SDS011;3356;49.360;8.266;2022-11-10T05:10:13;13.27;;;5.47;;
6640;SDS011;3356;49.360;8.266;2022-11-10T05:12:33;14.20;;;5.53;;
6640;SDS011;3356;49.360;8.266;2022-11-10T05:14:53;10.47;;;6.13;;
6640;SDS011;3356;49.360;8.266;2022-11-10T05:17:14;11.07;;;6.47;;
6640;SDS011;3356;49.360;8.266;2022-11-10T05:19:34;15.70;;;8.60;;
6640;SDS011;3356;49.360;8.266;2022-11-10T05:21:54;14.63;;;7.90;;
6640;SDS011;3356;49.360;8.266;2022-11-10T05:24:13;13.63;;;6.43;;
6640;SDS011;3356;49.360;8.266;2022-11-10T05:26:33;11.20;;;6.50;;
6640;SDS011;3356;49.360;8.266;2022-11-10T05:28:53;13.23;;;6.17;;
6640;SDS011;3356;49.360;8.266;2022-11-10T05:31:13;10.87;;;5.83;;
6640;SDS011;3356;49.360;8.266;2022-11-10T05:33:33;8.63;;;5.67;;
6640;SDS011;3356;49.360;8.266;2022-11-10T05:35:54;10.77;;;6.10;;
6640;SDS011;3356;49.360;8.266;2022-11-10T05:38:13;9.27;;;5.47;;
6640;SDS011;3356;49.360;8.266;2022-11-10T05:40:33;10.23;;;5.57;;
6640;SDS011;3356;49.360;8.266;2022-11-10T05:42:52;8.60;;;5.13;;
6640;SDS011;3356;49.360;8.266;2022-11-10T05:45:12;12.27;;;5.63;;
6640;SDS011;3356;49.360;8.266;2022-11-10T05:47:35;8.13;;;5.53;;
6640;SDS011;3356;49.360;8.266;2022-11-10T05:49:55;9.70;;;5.83;;
6640;SDS011;3356;49.360;8.266;2022-11-10T05:52:14;11.10;;;4.90;;
6640;SDS011;3356;49.360;8.266;2022-11-10T05:54:34;9.97;;;5.63;;
6640;SDS011;3356;49.360;8.266;2022-11-10T05:56:54;13.87;;;6.33;;
6640;SDS011;3356;49.360;8.266;2022-11-10T05:59:13;13.90;;;6.30;;
6640;SDS011;3356;49.360;8.266;2022-11-10T06:01:33;13.10;;;6.10;;
6640;SDS011;3356;49.360;8.266;2022-11-10T06:03:52;10.37;;;5.93;;
6640;SDS011;3356;49.360;8.266;2022-11-10T06:06:12;16.97;;;6.73;;
6640;SDS011;3356;49.360;8.266;2022-11-10T06:08:31;15.13;;;7.20;;
6640;SDS011;3356;49.360;8.266;2022-11-10T06:10:51;10.77;;;6.33;;
6640;SDS011;3356;49.360;8.266;2022-11-10T06:13:12;16.73;;;7.47;;
6640;SDS011;3356;49.360;8.266;2022-11-10T06:15:32;15.33;;;7.80;;
6640;SDS011;3356;49.360;8.266;2022-11-10T06:17:52;11.87;;;7.30;;
6640;SDS011;3356;49.360;8.266;2022-11-10T06:20:14;14.47;;;8.27;;
6640;SDS011;3356;49.360;8.266;2022-11-10T06:22:35;16.03;;;8.33;;
6640;SDS011;3356;49.360;8.266;2022-11-10T06:24:55;17.87;;;8.37;;
6640;SDS011;3356;49.360;8.266;2022-11-10T06:27:15;18.73;;;8.83;;
6640;SDS011;3356;49.360;8.266;2022-11-10T06:29:36;19.23;;;9.47;;
6640;SDS011;3356;49.360;8.266;2022-11-10T06:31:56;17.73;;;9.40;;
6640;SDS011;3356;49.360;8.266;2022-11-10T06:34:16;13.90;;;9.27;;
6640;SDS011;3356;49.360;8.266;2022-11-10T06:36:35;21.17;;;10.97;;
6640;SDS011;3356;49.360;8.266;2022-11-10T06:38:57;23.23;;;12.80;;
6640;SDS011;3356;49.360;8.266;2022-11-10T06:41:17;39.13;;;18.77;;
6640;SDS011;3356;49.360;8.266;2022-11-10T06:43:36;37.47;;;18.33;;
6640;SDS011;3356;49.360;8.266;2022-11-10T06:45:56;35.07;;;18.27;;
6640;SDS011;3356;49.360;8.266;2022-11-10T06:48:16;28.40;;;16.23;;
6640;SDS011;3356;49.360;8.266;2022-11-10T06:50:36;23.53;;;12.87;;
6640;SDS011;3356;49.360;8.266;2022-11-10T06:52:56;20.57;;;10.57;;
6640;SDS011;3356;49.360;8.266;2022-11-10T06:55:16;18.67;;;11.53;;
6640;SDS011;3356;49.360;8.266;2022-11-10T06:57:36;23.70;;;11.90;;
6640;SDS011;3356;49.360;8.266;2022-11-10T06:59:57;24.10;;;12.40;;
6640;SDS011;3356;49.360;8.266;2022-11-10T07:02:16;19.73;;;10.67;;
6640;SDS011;3356;49.360;8.266;2022-11-10T07:04:36;19.23;;;11.27;;
6640;SDS011;3356;49.360;8.266;2022-11-10T07:06:56;14.90;;;10.23;;
6640;SDS011;3356;49.360;8.266;2022-11-10T07:09:16;17.97;;;10.37;;
6640;SDS011;3356;49.360;8.266;2022-11-10T07:11:35;20.27;;;10.73;;
6640;SDS011;3356;49.360;8.266;2022-11-10T07:13:55;19.10;;;10.40;;
6640;SDS011;3356;49.360;8.266;2022-11-10T07:16:15;19.23;;;10.77;;
6640;SDS011;3356;49.360;8.266;2022-11-10T07:18:35;20.43;;;9.73;;
6640;SDS011;3356;49.360;8.266;2022-11-10T07:20:55;21.57;;;10.03;;
6640;SDS011;3356;49.360;8.266;2022-11-10T07:23:14;24.47;;;10.63;;
6640;SDS011;3356;49.360;8.266;2022-11-10T07:25:35;19.57;;;9.23;;
6640;SDS011;3356;49.360;8.266;2022-11-10T07:27:55;26.40;;;10.87;;
6640;SDS011;3356;49.360;8.266;2022-11-10T07:30:17;21.07;;;9.83;;
6640;SDS011;3356;49.360;8.266;2022-11-10T07:32:36;19.80;;;10.47;;
6640;SDS011;3356;49.360;8.266;2022-11-10T07:34:56;20.60;;;11.20;;
6640;SDS011;3356;49.360;8.266;2022-11-10T07:37:16;18.80;;;10.90;;
6640;SDS011;3356;49.360;8.266;2022-11-10T07:39:35;19.37;;;10.37;;
6640;SDS011;3356;49.360;8.266;2022-11-10T07:41:55;16.10;;;10.50;;
6640;SDS011;3356;49.360;8.266;2022-11-10T07:44:15;15.93;;;9.40;;
6640;SDS011;3356;49.360;8.266;2022-11-10T07:46:35;26.53;;;10.40;;
6640;SDS011;3356;49.360;8.266;2022-11-10T07:48:54;31.47;;;11.47;;
6640;SDS011;3356;49.360;8.266;2022-11-10T07:51:14;19.87;;;10.20;;
6640;SDS011;3356;49.360;8.266;2022-11-10T07:53:34;20.93;;;11.10;;
6640;SDS011;3356;49.360;8.266;2022-11-10T07:55:53;21.83;;;11.00;;
6640;SDS011;3356;49.360;8.266;2022-11-10T07:58:14;18.43;;;10.30;;
6640;SDS011;3356;49.360;8.266;2022-11-10T08:00:35;23.63;;;11.00;;
6640;SDS011;3356;49.360;8.266;2022-11-10T08:03:05;23.07;;;11.03;;
6640;SDS011;3356;49.360;8.266;2022-11-10T08:05:29;20.20;;;11.57;;
6640;SDS011;3356;49.360;8.266;2022-11-10T08:07:51;18.23;;;10.60;;
6640;SDS011;3356;49.360;8.266;2022-11-10T08:10:11;14.97;;;10.10;;
6640;SDS011;3356;49.360;8.266;2022-11-10T08:12:30;17.47;;;9.07;;
6640;SDS011;3356;49.360;8.266;2022-11-10T08:14:50;19.63;;;9.03;;
6640;SDS011;3356;49.360;8.266;2022-11-10T08:17:09;13.37;;;8.53;;
6640;SDS011;3356;49.360;8.266;2022-11-10T08:19:29;19.33;;;8.97;;
6640;SDS011;3356;49.360;8.266;2022-11-10T08:21:49;19.87;;;10.10;;
6640;SDS011;3356;49.360;8.266;2022-11-10T08:24:08;19.53;;;9.37;;
6640;SDS011;3356;49.360;8.266;2022-11-10T08:26:28;21.33;;;10.60;;
6640;SDS011;3356;49.360;8.266;2022-11-10T08:28:48;26.63;;;14.67;;
6640;SDS011;3356;49.360;8.266;2022-11-10T08:31:08;24.40;;;13.23;;
6640;SDS011;3356;49.360;8.266;2022-11-10T08:33:27;16.77;;;10.43;;
6640;SDS011;3356;49.360;8.266;2022-11-10T08:35:48;15.57;;;10.33;;
6640;SDS011;3356;49.360;8.266;2022-11-10T08:38:10;16.70;;;9.47;;
6640;SDS011;3356;49.360;8.266;2022-11-10T08:40:32;19.97;;;7.43;;
6640;SDS011;3356;49.360;8.266;2022-11-10T08:42:58;16.53;;;6.80;;
6640;SDS011;3356;49.360;8.266;2022-11-10T08:45:19;13.90;;;7.17;;
6640;SDS011;3356;49.360;8.266;2022-11-10T08:47:39;12.97;;;5.37;;
6640;SDS011;3356;49.360;8.266;2022-11-10T08:49:59;7.40;;;4.13;;
6640;SDS011;3356;49.360;8.266;2022-11-10T08:52:18;12.63;;;5.30;;
6640;SDS011;3356;49.360;8.266;2022-11-10T08:54:38;10.57;;;5.13;;
6640;SDS011;3356;49.360;8.266;2022-11-10T08:56:58;9.17;;;4.63;;
6640;SDS011;3356;49.360;8.266;2022-11-10T08:59:17;13.67;;;4.50;;
6640;SDS011;3356;49.360;8.266;2022-11-10T09:01:37;14.80;;;4.57;;
6640;SDS011;3356;49.360;8.266;2022-11-10T09:03:56;11.27;;;3.70;;
6640;SDS011;3356;49.360;8.266;2022-11-10T09:06:16;13.63;;;4.20;;
6640;SDS011;3356;49.360;8.266;2022-11-10T09:08:36;12.67;;;3.97;;
6640;SDS011;3356;49.360;8.266;2022-11-10T09:10:56;12.97;;;4.20;;
6640;SDS011;3356;49.360;8.266;2022-11-10T09:13:16;12.47;;;3.70;;
6640;SDS011;3356;49.360;8.266;2022-11-10T09:15:37;10.80;;;3.17;;
6640;SDS011;3356;49.360;8.266;2022-11-10T09:17:57;10.40;;;3.33;;
6640;SDS011;3356;49.360;8.266;2022-11-10T09:20:18;11.00;;;3.03;;
6640;SDS011;3356;49.360;8.266;2022-11-10T09:22:38;9.93;;;3.03;;
6640;SDS011;3356;49.360;8.266;2022-11-10T09:24:58;8.30;;;3.00;;
6640;SDS011;3356;49.360;8.266;2022-11-10T09:27:17;6.63;;;2.87;;
6640;SDS011;3356;49.360;8.266;2022-11-10T09:29:37;10.50;;;2.80;;
6640;SDS011;3356;49.360;8.266;2022-11-10T09:31:57;14.40;;;4.43;;
6640;SDS011;3356;49.360;8.266;2022-11-10T09:34:16;9.77;;;4.40;;
6640;SDS011;3356;49.360;8.266;2022-11-10T09:36:36;8.77;;;3.20;;
6640;SDS011;3356;49.360;8.266;2022-11-10T09:38:58;12.07;;;3.73;;
6640;SDS011;3356;49.360;8.266;2022-11-10T09:41:17;10.80;;;4.13;;
6640;SDS011;3356;49.360;8.266;2022-11-10T09:46:16;8.83;;;3.20;;
6640;SDS011;3356;49.360;8.266;2022-11-10T09:48:49;14.03;;;3.47;;
6640;SDS011;3356;49.360;8.266;2022-11-10T09:51:23;10.97;;;3.13;;
6640;SDS011;3356;49.360;8.266;2022-11-10T09:53:55;8.90;;;3.20;;
6640;SDS011;3356;49.360;8.266;2022-11-10T09:56:33;7.73;;;2.30;;
6640;SDS011;3356;49.360;8.266;2022-11-10T09:58:54;11.80;;;2.97;;
6640;SDS011;3356;49.360;8.266;2022-11-10T10:01:21;7.60;;;2.80;;
6640;SDS011;3356;49.360;8.266;2022-11-10T10:03:51;8.77;;;2.70;;
6640;SDS011;3356;49.360;8.266;2022-11-10T10:06:54;11.07;;;3.73;;
6640;SDS011;3356;49.360;8.266;2022-11-10T10:09:19;7.70;;;2.60;;
6640;SDS011;3356;49.360;8.266;2022-11-10T10:14:44;4.93;;;2.17;;
6640;SDS011;3356;49.360;8.266;2022-11-10T10:17:21;4.40;;;2.17;;
6640;SDS011;3356;49.360;8.266;2022-11-10T10:20:24;12.90;;;3.03;;
6640;SDS011;3356;49.360;8.266;2022-11-10T10:25:24;7.27;;;2.10;;
6640;SDS011;3356;49.360;8.266;2022-11-10T10:27:46;6.93;;;2.60;;
6640;SDS011;3356;49.360;8.266;2022-11-10T10:30:12;6.00;;;1.80;;
6640;SDS011;3356;49.360;8.266;2022-11-10T10:32:33;5.87;;;2.53;;
6640;SDS011;3356;49.360;8.266;2022-11-10T10:34:52;8.73;;;2.80;;
6640;SDS011;3356;49.360;8.266;2022-11-10T10:39:43;7.77;;;2.80;;
6640;SDS011;3356;49.360;8.266;2022-11-10T10:47:36;8.10;;;2.60;;
6640;SDS011;3356;49.360;8.266;2022-11-10T10:50:08;4.53;;;2.33;;
6640;SDS011;3356;49.360;8.266;2022-11-10T10:55:27;8.70;;;2.43;;
6640;SDS011;3356;49.360;8.266;2022-11-10T10:57:49;6.00;;;2.10;;
6640;SDS011;3356;49.360;8.266;2022-11-10T11:02:35;7.17;;;2.07;;
6640;SDS011;3356;49.360;8.266;2022-11-10T11:08:03;5.73;;;1.97;;
6640;SDS011;3356;49.360;8.266;2022-11-10T11:10:24;9.40;;;2.50;;
6640;SDS011;3356;49.360;8.266;2022-11-10T11:12:46;6.73;;;2.00;;
6640;SDS011;3356;49.360;8.266;2022-11-10T11:15:23;8.40;;;2.40;;
6640;SDS011;3356;49.360;8.266;2022-11-10T11:17:52;7.07;;;2.40;;
6640;SDS011;3356;49.360;8.266;2022-11-10T11:20:14;11.07;;;3.00;;
6640;SDS011;3356;49.360;8.266;2022-11-10T11:25:23;7.90;;;2.07;;
6640;SDS011;3356;49.360;8.266;2022-11-10T11:30:43;9.60;;;1.90;;
6640;SDS011;3356;49.360;8.266;2022-11-10T11:33:10;7.30;;;2.43;;
6640;SDS011;3356;49.360;8.266;2022-11-10T11:38:31;9.47;;;2.50;;
6640;SDS011;3356;49.360;8.266;2022-11-10T11:48:41;5.90;;;2.00;;
6640;SDS011;3356;49.360;8.266;2022-11-10T11:58:45;2.93;;;2.13;;
6640;SDS011;3356;49.360;8.266;2022-11-10T12:09:41;7.77;;;2.43;;
6640;SDS011;3356;49.360;8.266;2022-11-10T12:12:26;7.33;;;1.97;;
6640;SDS011;3356;49.360;8.266;2022-11-10T12:14:52;12.13;;;3.10;;
6640;SDS011;3356;49.360;8.266;2022-11-10T12:17:30;5.57;;;2.30;;
6640;SDS011;3356;49.360;8.266;2022-11-10T12:23:04;9.20;;;2.33;;
6640;SDS011;3356;49.360;8.266;2022-11-10T12:25:37;4.03;;;2.17;;
6640;SDS011;3356;49.360;8.266;2022-11-10T12:30:31;6.30;;;1.80;;
6640;SDS011;3356;49.360;8.266;2022-11-10T12:32:56;7.50;;;2.17;;
6640;SDS011;3356;49.360;8.266;2022-11-10T12:35:33;6.97;;;2.07;;
6640;SDS011;3356;49.360;8.266;2022-11-10T12:37:58;8.40;;;1.83;;
6640;SDS011;3356;49.360;8.266;2022-11-10T12:40:31;6.60;;;2.10;;
6640;SDS011;3356;49.360;8.266;2022-11-10T12:43:00;5.13;;;2.17;;
6640;SDS011;3356;49.360;8.266;2022-11-10T12:45:23;8.27;;;2.53;;
6640;SDS011;3356;49.360;8.266;2022-11-10T12:47:46;7.03;;;2.07;;
6640;SDS011;3356;49.360;8.266;2022-11-10T12:52:39;4.30;;;1.73;;
6640;SDS011;3356;49.360;8.266;2022-11-10T12:55:11;5.63;;;2.10;;
6640;SDS011;3356;49.360;8.266;2022-11-10T12:57:32;7.30;;;1.63;;
6640;SDS011;3356;49.360;8.266;2022-11-10T13:00:03;5.43;;;2.13;;
6640;SDS011;3356;49.360;8.266;2022-11-10T13:02:38;9.07;;;2.03;;
6640;SDS011;3356;49.360;8.266;2022-11-10T13:07:43;5.87;;;2.10;;
6640;SDS011;3356;49.360;8.266;2022-11-10T13:10:22;9.27;;;1.77;;
6640;SDS011;3356;49.360;8.266;2022-11-10T13:17:56;10.50;;;2.57;;
6640;SDS011;3356;49.360;8.266;2022-11-10T13:22:56;4.23;;;1.93;;
6640;SDS011;3356;49.360;8.266;2022-11-10T13:27:54;7.47;;;2.43;;
6640;SDS011;3356;49.360;8.266;2022-11-10T13:30:34;4.67;;;1.90;;
6640;SDS011;3356;49.360;8.266;2022-11-10T13:35:43;6.03;;;2.43;;
6640;SDS011;3356;49.360;8.266;2022-11-10T13:38:18;2.63;;;1.57;;
6640;SDS011;3356;49.360;8.266;2022-11-10T13:40:52;8.97;;;2.57;;
6640;SDS011;3356;49.360;8.266;2022-11-10T13:45:42;3.70;;;1.40;;
6640;SDS011;3356;49.360;8.266;2022-11-10T13:53:19;7.00;;;2.07;;
6640;SDS011;3356;49.360;8.266;2022-11-10T13:56:15;9.50;;;1.60;;
6640;SDS011;3356;49.360;8.266;2022-11-10T13:58:44;9.60;;;2.17;;
6640;SDS011;3356;49.360;8.266;2022-11-10T14:06:05;5.57;;;2.00;;
6640;SDS011;3356;49.360;8.266;2022-11-10T14:08:31;7.80;;;2.00;;
6640;SDS011;3356;49.360;8.266;2022-11-10T14:10:57;4.53;;;1.93;;
6640;SDS011;3356;49.360;8.266;2022-11-10T14:13:34;5.13;;;2.33;;
6640;SDS011;3356;49.360;8.266;2022-11-10T14:16:18;6.70;;;2.13;;
6640;SDS011;3356;49.360;8.266;2022-11-10T14:18:44;4.23;;;1.77;;
6640;SDS011;3356;49.360;8.266;2022-11-10T14:21:08;8.30;;;1.93;;
6640;SDS011;3356;49.360;8.266;2022-11-10T14:23:44;6.60;;;2.00;;
6640;SDS011;3356;49.360;8.266;2022-11-10T14:26:24;7.40;;;2.30;;
6640;SDS011;3356;49.360;8.266;2022-11-10T14:28:53;4.60;;;1.70;;
6640;SDS011;3356;49.360;8.266;2022-11-10T14:31:20;6.10;;;2.20;;
6640;SDS011;3356;49.360;8.266;2022-11-10T14:33:41;4.40;;;2.10;;
6640;SDS011;3356;49.360;8.266;2022-11-10T14:36:02;5.70;;;1.83;;
6640;SDS011;3356;49.360;8.266;2022-11-10T14:38:24;4.33;;;1.70;;
6640;SDS011;3356;49.360;8.266;2022-11-10T14:40:45;5.77;;;1.80;;
6640;SDS011;3356;49.360;8.266;2022-11-10T14:43:22;3.70;;;1.90;;
6640;SDS011;3356;49.360;8.266;2022-11-10T14:45:50;10.73;;;2.33;;
6640;SDS011;3356;49.360;8.266;2022-11-10T14:48:17;7.80;;;2.57;;
6640;SDS011;3356;49.360;8.266;2022-11-10T14:50:38;8.40;;;2.10;;
6640;SDS011;3356;49.360;8.266;2022-11-10T14:53:01;8.43;;;2.63;;
6640;SDS011;3356;49.360;8.266;2022-11-10T14:55:30;4.60;;;1.90;;
6640;SDS011;3356;49.360;8.266;2022-11-10T15:00:28;5.77;;;2.57;;
6640;SDS011;3356;49.360;8.266;2022-11-10T15:02:54;4.40;;;2.00;;
6640;SDS011;3356;49.360;8.266;2022-11-10T15:05:16;5.70;;;1.87;;
6640;SDS011;3356;49.360;8.266;2022-11-10T15:07:36;4.97;;;1.90;;
6640;SDS011;3356;49.360;8.266;2022-11-10T15:10:06;6.07;;;1.97;;
6640;SDS011;3356;49.360;8.266;2022-11-10T15:12:32;6.50;;;1.67;;
6640;SDS011;3356;49.360;8.266;2022-11-10T15:14:56;6.50;;;2.00;;
6640;SDS011;3356;49.360;8.266;2022-11-10T15:17:17;5.17;;;2.07;;
6640;SDS011;3356;49.360;8.266;2022-11-10T15:19:38;2.73;;;1.70;;
6640;SDS011;3356;49.360;8.266;2022-11-10T15:22:12;6.80;;;2.20;;
6640;SDS011;3356;49.360;8.266;2022-11-10T15:24:34;4.77;;;2.07;;
6640;SDS011;3356;49.360;8.266;2022-11-10T15:26:53;6.57;;;3.00;;
6640;SDS011;3356;49.360;8.266;2022-11-10T15:29:20;5.83;;;2.90;;
6640;SDS011;3356;49.360;8.266;2022-11-10T15:31:41;7.27;;;2.73;;
6640;SDS011;3356;49.360;8.266;2022-11-10T15:34:03;6.53;;;2.30;;
6640;SDS011;3356;49.360;8.266;2022-11-10T15:38:42;7.83;;;4.23;;
6640;SDS011;3356;49.360;8.266;2022-11-10T15:41:22;9.87;;;4.80;;
6640;SDS011;3356;49.360;8.266;2022-11-10T15:43:43;8.47;;;3.17;;
6640;SDS011;3356;49.360;8.266;2022-11-10T15:46:10;5.83;;;2.97;;
6640;SDS011;3356;49.360;8.266;2022-11-10T15:48:36;6.53;;;2.50;;
6640;SDS011;3356;49.360;8.266;2022-11-10T15:50:57;7.20;;;2.47;;
6640;SDS011;3356;49.360;8.266;2022-11-10T15:53:19;5.90;;;2.80;;
6640;SDS011;3356;49.360;8.266;2022-11-10T15:55:43;5.27;;;2.47;;
6640;SDS011;3356;49.360;8.266;2022-11-10T15:58:04;7.10;;;2.33;;
6640;SDS011;3356;49.360;8.266;2022-11-10T16:00:37;8.60;;;2.10;;
6640;SDS011;3356;49.360;8.266;2022-11-10T16:02:57;3.97;;;2.03;;
6640;SDS011;3356;49.360;8.266;2022-11-10T16:05:17;11.00;;;3.07;;
6640;SDS011;3356;49.360;8.266;2022-11-10T16:07:38;9.93;;;2.83;;
6640;SDS011;3356;49.360;8.266;2022-11-10T16:09:57;6.43;;;2.57;;
6640;SDS011;3356;49.360;8.266;2022-11-10T16:12:18;7.50;;;2.40;;
6640;SDS011;3356;49.360;8.266;2022-11-10T16:14:40;7.17;;;2.40;;
6640;SDS011;3356;49.360;8.266;2022-11-10T16:17:04;11.37;;;2.80;;
6640;SDS011;3356;49.360;8.266;2022-11-10T16:19:26;8.63;;;2.57;;
6640;SDS011;3356;49.360;8.266;2022-11-10T16:21:46;7.53;;;2.70;;
6640;SDS011;3356;49.360;8.266;2022-11-10T16:24:06;6.37;;;2.87;;
6640;SDS011;3356;49.360;8.266;2022-11-10T16:26:26;7.03;;;2.30;;
6640;SDS011;3356;49.360;8.266;2022-11-10T16:28:46;8.47;;;2.10;;